Time;durP1;ratioP1;P1;durP2;ratioP2;P2;SDS_P1;SDS_P2;PMS_P1;PMS_P2;Temp;Humidity;BMP_temperature;BMP_pressure;BME280_temperature;BME280_humidity;BME280_pressure;Samples;Min_cycle;Max_cycle;Signal;HPM_P1;HPM_P2
2022/02/09 00:01:12;;;;;;;;;;;;;;;23.14;17.70;98189.72;4977911;28;1083;-73
2022/02/09 00:03:39;;;;;;;;;;;;;;;23.47;17.19;98180.22;4977932;28;1043;-73
2022/02/09 00:06:08;;;;;;;;;;;;;;;22.97;17.87;98178.91;4977418;28;1033;-73
2022/02/09 00:08:34;;;;;;;;;;;;;;;22.67;18.28;98183.75;4977472;28;1001;-73
2022/02/09 00:11:03;;;;;;;;;;;;;;;23.18;17.82;98191.66;4977459;28;972;-73
2022/02/09 00:18:36;;;;;;;;;;;;;;;22.77;17.99;98167.69;4977416;28;1117;-73
2022/02/09 00:24:06;;;;;;;;;;;;;;;22.85;17.65;98175.56;4977522;28;950;-73
2022/02/09 00:30:06;;;;;;;;;;;;;;;23.53;17.00;98167.06;4901012;29;1126;-73
2022/02/09 00:35:44;;;;;;;;;;;;;;;22.92;17.57;98163.22;4900847;29;1911;-73
2022/02/09 01:56:30;;;;;;;;;;;;;;;22.61;17.92;98236.59;4899479;29;962;-74
2022/02/09 01:58:55;;;;;;;;;;;;;;;22.36;18.57;98245.75;4880480;29;978;-73
2022/02/09 02:01:21;;;;;;;;;;;;;;;22.63;18.21;98248.28;4898879;29;1011;-73
2022/02/09 02:03:46;;;;;;;;;;;;;;;22.82;17.74;98244.53;4882806;29;1087;-73
2022/02/09 02:06:16;;;;;;;;;;;;;;;22.53;18.28;98250.16;4880452;29;1019;-73
2022/02/09 02:08:42;;;;;;;;;;;;;;;22.75;17.88;98252.44;4824850;29;988;-73
2022/02/09 02:16:24;;;;;;;;;;;;;;;22.59;18.00;98254.06;4825301;29;972;-73
2022/02/09 02:18:57;;;;;;;;;;;;;;;22.54;18.27;98251.00;4797983;29;1201;-73
2022/02/09 02:21:42;;;;;;;;;;;;;;;22.50;18.41;98253.13;4789266;30;1158;-73
2022/02/09 03:14:18;;;;;;;;;;;;;;;22.72;18.22;98264.69;4898166;29;1984;-73
2022/02/09 03:16:54;;;;;;;;;;;;;;;22.59;18.04;98267.47;4883397;29;1065;-73
2022/02/09 03:19:42;;;;;;;;;;;;;;;22.63;18.24;98253.97;4846372;29;1019;-73
2022/02/09 03:22:21;;;;;;;;;;;;;;;22.74;18.18;98260.16;4865119;29;1002;-73
2022/02/09 03:58:53;;;;;;;;;;;;;;;23.26;17.68;98244.94;4939560;29;979;-73
2022/02/09 04:01:21;;;;;;;;;;;;;;;23.23;17.63;98243.00;4939591;29;905;-73
2022/02/09 04:03:46;;;;;;;;;;;;;;;22.97;17.84;98244.16;4923562;29;1489;-73
2022/02/09 04:06:12;;;;;;;;;;;;;;;22.68;18.39;98253.41;4939473;29;934;-73
2022/02/09 04:08:46;;;;;;;;;;;;;;;22.54;18.59;98245.31;4939188;29;1382;-73
2022/02/09 04:11:19;;;;;;;;;;;;;;;23.08;18.04;98247.50;4961595;28;990;-74
2022/02/09 04:14:04;;;;;;;;;;;;;;;23.29;17.49;98249.69;4999100;28;1992;-73
2022/02/09 04:19:14;;;;;;;;;;;;;;;22.60;18.23;98257.72;4998890;28;987;-73
2022/02/09 04:38:17;;;;;;;;;;;;;;;23.20;17.67;98263.75;4998834;28;1001;-73
2022/02/09 04:41:17;;;;;;;;;;;;;;;23.25;17.65;98268.88;4998346;28;1015;-73
2022/02/09 04:57:03;;;;;;;;;;;;;;;22.87;18.17;98275.19;4919293;29;1029;-73
2022/02/09 05:25:48;;;;;;;;;;;;;;;23.10;17.63;98299.75;4899893;29;1042;-73
2022/02/09 05:28:19;;;;;;;;;;;;;;;23.31;17.67;98309.69;4899875;29;1018;-73
2022/02/09 05:30:46;;;;;;;;;;;;;;;23.15;17.91;98315.41;4899772;29;1084;-74
2022/02/09 05:33:11;;;;;;;;;;;;;;;22.72;18.09;98315.75;4916667;29;981;-74
2022/02/09 05:35:37;;;;;;;;;;;;;;;22.49;18.53;98319.59;4937634;29;1910;-73
2022/02/09 05:38:03;;;;;;;;;;;;;;;23.03;17.68;98316.16;4936669;29;981;-73
2022/02/09 05:40:29;;;;;;;;;;;;;;;22.78;18.31;98322.47;4937569;29;1055;-73
2022/02/09 05:42:55;;;;;;;;;;;;;;;22.82;18.00;98321.13;4937173;29;975;-73
2022/02/09 05:45:23;;;;;;;;;;;;;;;22.86;17.89;98319.00;4937488;29;1032;-73
2022/02/09 05:50:58;;;;;;;;;;;;;;;22.82;18.11;98323.16;4975716;28;971;-74
2022/02/09 05:53:25;;;;;;;;;;;;;;;22.89;18.03;98334.34;4953990;29;1910;-74
2022/02/09 05:56:04;;;;;;;;;;;;;;;22.25;18.52;98341.63;4956573;29;1087;-73
2022/02/09 06:00:55;;;;;;;;;;;;;;;22.66;18.46;98332.50;4902548;29;988;-74
2022/02/09 06:03:21;;;;;;;;;;;;;;;22.68;18.14;98340.56;4880005;29;1119;-73
2022/02/09 06:05:47;;;;;;;;;;;;;;;22.70;18.10;98343.75;4864909;29;975;-73
2022/02/09 06:08:12;;;;;;;;;;;;;;;22.48;18.42;98344.28;4880255;29;991;-73
2022/02/09 06:10:40;;;;;;;;;;;;;;;22.83;17.99;98353.13;4861835;29;993;-74
2022/02/09 06:13:41;;;;;;;;;;;;;;;22.57;18.20;98357.84;4861796;29;1633;-73
2022/02/09 06:19:37;;;;;;;;;;;;;;;22.73;17.84;98359.88;4861947;29;1016;-72
2022/02/09 06:21:36;;;;;;;;;;;;;;;22.70;18.12;98355.91;4880183;29;1035;-73
2022/02/09 06:24:01;;;;;;;;;;;;;;;22.71;18.22;98363.16;4887281;29;1095;-72
2022/02/09 06:26:27;;;;;;;;;;;;;;;22.88;17.78;98367.59;4898850;29;981;-72
2022/02/09 06:28:52;;;;;;;;;;;;;;;22.78;17.87;98362.97;4899001;29;1056;-72
2022/02/09 06:31:18;;;;;;;;;;;;;;;22.74;18.08;98362.28;4898955;29;993;-72
2022/02/09 06:33:43;;;;;;;;;;;;;;;22.74;18.10;98373.63;4887702;29;1968;-72
2022/02/09 06:36:10;;;;;;;;;;;;;;;22.61;18.04;98369.91;4930513;29;1102;-72
2022/02/09 06:38:39;;;;;;;;;;;;;;;22.85;17.72;98371.31;4936701;29;1066;-73
2022/02/09 06:41:08;;;;;;;;;;;;;;;22.63;18.18;98367.41;4916905;28;997;-72
2022/02/09 06:43:34;;;;;;;;;;;;;;;22.90;18.06;98367.19;4977112;28;974;-73
2022/02/09 06:45:59;;;;;;;;;;;;;;;22.31;18.52;98373.88;4977863;28;960;-72
2022/02/09 06:48:25;;;;;;;;;;;;;;;22.85;18.04;98379.03;4977929;28;896;-72
2022/02/09 06:50:55;;;;;;;;;;;;;;;22.49;18.17;98381.97;4979081;28;1040;-72
2022/02/09 06:55:52;;;;;;;;;;;;;;;22.35;18.56;98386.72;4980835;28;2236;-72
2022/02/09 06:58:22;;;;;;;;;;;;;;;22.91;17.80;98385.00;4980741;28;877;-73
2022/02/09 07:00:47;;;;;;;;;;;;;;;22.51;18.38;98387.97;4981449;28;912;-73
2022/02/09 07:03:13;;;;;;;;;;;;;;;22.72;18.02;98381.78;4980852;28;1087;-73
2022/02/09 07:05:39;;;;;;;;;;;;;;;22.93;17.92;98386.13;4981159;28;1025;-73
2022/02/09 07:08:05;;;;;;;;;;;;;;;22.81;17.95;98390.47;4981030;28;950;-73
2022/02/09 07:10:30;;;;;;;;;;;;;;;22.77;18.05;98386.91;4978643;28;1053;-73
2022/02/09 07:12:55;;;;;;;;;;;;;;;23.00;17.94;98379.47;4985523;28;1114;-72
2022/02/09 07:15:37;;;;;;;;;;;;;;;22.59;18.31;98380.91;4997592;28;1910;-73
2022/02/09 07:18:07;;;;;;;;;;;;;;;22.92;17.79;98372.41;4997796;28;1099;-72
2022/02/09 07:20:42;;;;;;;;;;;;;;;23.39;17.43;98379.22;4997980;28;1061;-72
2022/02/09 07:23:17;;;;;;;;;;;;;;;23.16;17.66;98376.63;4998017;28;988;-72
2022/02/09 07:25:47;;;;;;;;;;;;;;;23.50;17.27;98380.97;4997966;28;973;-72
2022/02/09 07:28:13;;;;;;;;;;;;;;;23.15;17.53;98380.69;4998145;28;1051;-72
2022/02/09 07:30:38;;;;;;;;;;;;;;;23.07;17.76;98382.94;4997933;28;1081;-72
2022/02/09 07:33:04;;;;;;;;;;;;;;;22.98;17.52;98382.75;4997557;28;927;-73
2022/02/09 07:35:31;;;;;;;;;;;;;;;22.99;17.50;98390.03;4991227;28;1958;-73
2022/02/09 07:37:56;;;;;;;;;;;;;;;23.50;17.02;98386.63;4955722;28;1256;-73
2022/02/09 07:40:22;;;;;;;;;;;;;;;23.34;17.44;98379.75;4935097;28;1527;-73
2022/02/09 07:42:51;;;;;;;;;;;;;;;23.53;17.27;98378.03;4969461;28;1755;-72
2022/02/09 07:52:55;;;;;;;;;;;;;;;23.33;17.36;98375.34;4978244;28;1047;-73
2022/02/09 07:55:20;;;;;;;;;;;;;;;23.27;17.35;98376.34;4978028;28;1898;-72
2022/02/09 07:57:46;;;;;;;;;;;;;;;22.77;17.59;98372.72;4977848;28;1047;-72
2022/02/09 08:00:13;;;;;;;;;;;;;;;22.61;18.10;98375.56;4960656;28;1010;-73
2022/02/09 08:02:41;;;;;;;;;;;;;;;22.90;17.51;98369.19;4977537;28;1107;-72
2022/02/09 08:05:06;;;;;;;;;;;;;;;23.23;17.18;98372.78;4977613;28;998;-72
2022/02/09 08:07:32;;;;;;;;;;;;;;;23.42;17.29;98373.91;4977810;28;955;-73
2022/02/09 08:09:59;;;;;;;;;;;;;;;23.12;17.28;98373.88;5016105;28;961;-73
2022/02/09 08:12:48;;;;;;;;;;;;;;;22.98;17.39;98374.25;5018845;28;1105;-72
2022/02/09 08:22:05;;;;;;;;;;;;;;;23.27;17.07;98394.16;5018942;28;971;-73
2022/02/09 08:28:46;;;;;;;;;;;;;;;23.34;17.07;98405.31;5018777;28;916;-73
2022/02/09 08:33:40;;;;;;;;;;;;;;;23.50;16.85;98395.16;4977304;28;1902;-73
2022/02/09 08:36:05;;;;;;;;;;;;;;;23.25;17.14;98396.63;4977528;28;1039;-73
2022/02/09 08:38:31;;;;;;;;;;;;;;;22.88;17.63;98393.16;4977249;28;956;-73
2022/02/09 08:40:56;;;;;;;;;;;;;;;22.86;17.58;98398.44;4977339;28;1000;-73
2022/02/09 08:43:22;;;;;;;;;;;;;;;23.07;17.37;98402.00;4976904;28;1642;-72
2022/02/09 08:45:47;;;;;;;;;;;;;;;23.27;17.15;98405.53;4977135;28;960;-73
2022/02/09 08:48:13;;;;;;;;;;;;;;;23.29;17.13;98413.59;4977148;28;989;-73
2022/02/09 08:50:38;;;;;;;;;;;;;;;23.52;16.94;98419.03;4977036;28;1060;-73
2022/02/09 08:53:04;;;;;;;;;;;;;;;23.00;17.60;98427.72;4976877;28;932;-73
2022/02/09 08:55:29;;;;;;;;;;;;;;;22.95;17.63;98437.59;4938140;29;1922;-72
2022/02/09 08:57:55;;;;;;;;;;;;;;;23.08;17.48;98427.09;4938350;29;972;-73
2022/02/09 09:00:30;;;;;;;;;;;;;;;23.58;16.68;98431.44;4938507;29;1186;-72
2022/02/09 09:05:41;;;;;;;;;;;;;;;22.71;17.57;98425.56;4976610;28;952;-73
2022/02/09 09:08:23;;;;;;;;;;;;;;;22.96;17.49;98419.31;4937947;29;970;-73
2022/02/09 09:11:12;;;;;;;;;;;;;;;23.38;17.29;98422.25;4938111;29;906;-72
2022/02/09 09:19:11;;;;;;;;;;;;;;;22.91;17.59;98407.69;4938106;29;1043;-72
2022/02/09 10:03:06;;;;;;;;;;;;;;;23.33;17.27;98420.75;4963958;28;1144;-73
2022/02/09 10:31:04;;;;;;;;;;;;;;;23.19;17.58;98412.63;4878457;29;1221;-72
2022/02/09 10:33:30;;;;;;;;;;;;;;;23.34;17.54;98418.72;4887519;29;1272;-73
2022/02/09 10:36:12;;;;;;;;;;;;;;;23.29;17.68;98430.63;4868022;29;1903;-73
2022/02/09 10:38:40;;;;;;;;;;;;;;;22.96;18.08;98416.47;4848168;29;1162;-72
2022/02/09 10:41:09;;;;;;;;;;;;;;;22.97;17.87;98420.09;4850355;29;1246;-73
2022/02/09 10:43:36;;;;;;;;;;;;;;;23.49;17.47;98428.44;4830941;29;1226;-73
2022/02/09 10:46:31;;;;;;;;;;;;;;;23.54;17.19;98418.59;4794974;29;1282;-73
2022/02/09 10:49:01;;;;;;;;;;;;;;;23.37;17.36;98410.13;4734129;30;1334;-73
2022/02/09 10:51:39;;;;;;;;;;;;;;;22.88;17.92;98407.34;4734097;30;1181;-72
2022/02/09 10:54:11;;;;;;;;;;;;;;;23.13;17.86;98422.94;4734735;30;1985;-72
2022/02/09 10:56:50;;;;;;;;;;;;;;;23.10;17.79;98423.81;4751677;30;1111;-73
2022/02/09 10:59:16;;;;;;;;;;;;;;;23.39;17.46;98427.50;4752254;30;1433;-73
2022/02/09 11:01:42;;;;;;;;;;;;;;;23.42;17.43;98433.53;4752676;30;1025;-73
2022/02/09 11:04:07;;;;;;;;;;;;;;;22.88;18.00;98434.91;4747915;30;1026;-72
2022/02/09 11:06:34;;;;;;;;;;;;;;;22.68;18.31;98431.31;4734610;30;1031;-73
2022/02/09 11:09:00;;;;;;;;;;;;;;;22.76;18.00;98427.09;4699814;30;1183;-73
2022/02/09 11:11:27;;;;;;;;;;;;;;;23.17;17.93;98437.84;4699815;30;1017;-72
2022/02/09 11:13:52;;;;;;;;;;;;;;;23.29;17.81;98431.41;4699872;30;1908;-72
2022/02/09 11:16:18;;;;;;;;;;;;;;;23.28;17.46;98441.19;4706481;30;1050;-72
2022/02/09 11:18:47;;;;;;;;;;;;;;;23.12;17.72;98438.38;4734327;30;1000;-73
2022/02/09 11:21:14;;;;;;;;;;;;;;;22.98;18.09;98444.41;4734643;30;982;-72
2022/02/09 11:23:45;;;;;;;;;;;;;;;23.10;17.90;98430.31;4733561;30;1236;-73
2022/02/09 11:26:43;;;;;;;;;;;;;;;23.67;17.09;98444.22;4740752;30;1987;-73
2022/02/09 11:32:03;;;;;;;;;;;;;;;22.93;17.97;98447.78;4804928;29;1085;-73
2022/02/09 11:34:29;;;;;;;;;;;;;;;22.95;18.15;98445.28;4805386;29;1911;-73
2022/02/09 11:37:00;;;;;;;;;;;;;;;23.20;17.65;98451.13;4808288;29;1225;-73
2022/02/09 11:39:54;;;;;;;;;;;;;;;23.38;17.83;98445.78;4793075;29;1280;-74
2022/02/09 11:45:38;;;;;;;;;;;;;;;22.81;18.43;98450.03;4834487;29;1158;-73
2022/02/09 11:48:52;;;;;;;;;;;;;;;22.66;18.34;98451.63;4836324;29;1206;-73
2022/02/09 11:51:37;;;;;;;;;;;;;;;23.18;17.93;98459.28;4844700;29;1078;-73
2022/02/09 12:11:27;;;;;;;;;;;;;;;23.06;18.29;98451.50;4863367;29;1264;-73
2022/02/09 12:18:57;;;;;;;;;;;;;;;22.97;18.46;98460.63;4827704;29;1326;-73
2022/02/09 12:21:37;;;;;;;;;;;;;;;23.31;18.25;98456.50;4831849;29;1017;-73
2022/02/09 12:24:15;;;;;;;;;;;;;;;23.54;17.64;98464.81;4847918;29;1062;-73
2022/02/09 12:26:50;;;;;;;;;;;;;;;23.34;17.80;98462.09;4863532;29;1078;-73
2022/02/09 12:29:18;;;;;;;;;;;;;;;23.09;18.14;98473.31;4863459;29;967;-73
2022/02/09 12:31:44;;;;;;;;;;;;;;;22.77;18.52;98466.34;4844658;29;1245;-73
2022/02/09 12:34:09;;;;;;;;;;;;;;;23.07;18.12;98481.47;4814351;29;1994;-73
2022/02/09 12:36:35;;;;;;;;;;;;;;;23.24;18.11;98468.88;4844861;29;1067;-73
2022/02/09 12:39:04;;;;;;;;;;;;;;;23.26;18.08;98476.94;4844711;29;1077;-73
2022/02/09 12:41:31;;;;;;;;;;;;;;;23.05;18.21;98479.09;4862984;29;1058;-73
2022/02/09 12:44:00;;;;;;;;;;;;;;;22.73;18.65;98482.66;4883449;29;1013;-73
2022/02/09 12:46:32;;;;;;;;;;;;;;;22.71;18.83;98479.47;4904734;29;1022;-73
2022/02/09 12:49:08;;;;;;;;;;;;;;;23.15;18.35;98482.88;4938228;29;1102;-73
2022/02/09 12:51:33;;;;;;;;;;;;;;;23.38;17.87;98479.06;4938246;29;1015;-73
2022/02/09 12:54:00;;;;;;;;;;;;;;;22.97;18.33;98471.19;4938050;29;1968;-73
2022/02/09 12:56:30;;;;;;;;;;;;;;;22.73;18.98;98474.16;4938384;29;1008;-73
2022/02/09 12:59:05;;;;;;;;;;;;;;;22.57;19.21;98474.13;4938060;29;1165;-73
2022/02/09 13:01:50;;;;;;;;;;;;;;;23.10;18.62;98483.41;4938221;29;1006;-73
2022/02/09 13:04:33;;;;;;;;;;;;;;;23.47;18.11;98486.97;4937696;29;1015;-73
2022/02/09 13:06:59;;;;;;;;;;;;;;;23.50;18.22;98486.84;4937858;29;921;-73
2022/02/09 13:09:25;;;;;;;;;;;;;;;23.08;18.28;98489.53;4937925;29;1071;-73
2022/02/09 13:11:51;;;;;;;;;;;;;;;23.01;18.43;98486.09;4938079;29;1002;-73
2022/02/09 13:14:27;;;;;;;;;;;;;;;23.07;18.45;98487.16;4939510;29;1906;-73
2022/02/09 14:19:09;;;;;;;;;;;;;;;22.94;18.70;98528.81;4996819;28;1157;-72
2022/02/09 14:51:26;;;;;;;;;;;;;;;23.15;18.52;98568.03;4827601;29;1023;-73
2022/02/09 14:53:43;;;;;;;;;;;;;;;23.25;18.69;98558.47;4842741;29;1064;-73
2022/02/09 14:56:22;;;;;;;;;;;;;;;23.32;18.61;98566.81;4842693;29;948;-73
2022/02/09 14:58:56;;;;;;;;;;;;;;;23.12;18.82;98568.94;4842810;29;1034;-73
2022/02/09 15:12:27;;;;;;;;;;;;;;;23.29;18.50;98584.75;4853610;29;1302;-73
2022/02/09 15:17:46;;;;;;;;;;;;;;;22.74;19.13;98582.75;4901781;29;1087;-73
2022/02/09 15:22:52;;;;;;;;;;;;;;;23.02;18.85;98595.53;4901987;29;1064;-73
2022/02/09 15:25:20;;;;;;;;;;;;;;;23.20;18.65;98592.28;4901351;29;1278;-73
2022/02/09 15:27:48;;;;;;;;;;;;;;;23.29;18.62;98589.63;4901846;29;1041;-73
2022/02/09 15:30:14;;;;;;;;;;;;;;;23.21;18.53;98586.16;4901729;29;1006;-73
2022/02/09 15:32:45;;;;;;;;;;;;;;;22.96;19.14;98589.59;4901621;29;969;-73
2022/02/09 15:35:23;;;;;;;;;;;;;;;22.67;19.06;98592.22;4901517;29;1985;-73
2022/02/09 15:59:19;;;;;;;;;;;;;;;22.86;19.02;98648.16;4905134;29;1021;-73
2022/02/09 16:23:31;;;;;;;;;;;;;;;23.08;18.96;98656.22;4900582;29;1031;-73
2022/02/09 16:33:08;;;;;;;;;;;;;;;22.99;18.96;98667.34;4900481;29;960;-73
2022/02/09 16:44:54;;;;;;;;;;;;;;;23.08;19.00;98693.13;4862971;29;1059;-73
2022/02/09 16:47:45;;;;;;;;;;;;;;;23.20;19.09;98689.59;4862687;29;1675;-73
2022/02/09 16:50:16;;;;;;;;;;;;;;;23.24;18.80;98684.63;4914261;29;1121;-73
2022/02/09 16:52:51;;;;;;;;;;;;;;;23.05;19.07;98699.66;4918866;29;1169;-73
2022/02/09 17:15:32;;;;;;;;;;;;;;;23.57;18.63;98701.72;4937840;29;1402;-73
2022/02/09 17:19:31;;;;;;;;;;;;;;;22.61;19.49;98713.09;4918635;29;1014;-73
2022/02/09 17:21:57;;;;;;;;;;;;;;;22.85;19.10;98717.50;4918971;29;1079;-73
2022/02/09 17:24:23;;;;;;;;;;;;;;;23.44;18.63;98709.34;4918399;29;1008;-73
2022/02/09 17:26:49;;;;;;;;;;;;;;;23.21;18.74;98719.59;4905149;29;1296;-73
2022/02/09 17:29:20;;;;;;;;;;;;;;;22.96;19.07;98728.66;4918321;29;1088;-73
2022/02/09 17:32:06;;;;;;;;;;;;;;;23.02;19.40;98717.59;4915330;29;929;-73
2022/02/09 17:34:45;;;;;;;;;;;;;;;22.92;19.02;98729.94;4899508;29;1902;-73
2022/02/09 17:53:26;;;;;;;;;;;;;;;23.12;18.90;98756.28;4876611;29;978;-73
2022/02/09 17:56:04;;;;;;;;;;;;;;;23.38;18.63;98752.47;4861855;29;1911;-73
2022/02/09 17:58:39;;;;;;;;;;;;;;;23.35;18.76;98744.03;4861924;29;982;-73
2022/02/09 18:01:04;;;;;;;;;;;;;;;22.91;19.16;98751.06;4868521;29;1085;-73
2022/02/09 18:03:30;;;;;;;;;;;;;;;22.91;19.36;98751.06;4899084;29;1117;-73
2022/02/09 18:05:58;;;;;;;;;;;;;;;22.81;19.28;98753.63;4906008;29;944;-73
2022/02/09 18:08:32;;;;;;;;;;;;;;;22.98;19.40;98759.41;4936604;29;1019;-73
2022/02/09 18:29:29;;;;;;;;;;;;;;;23.13;19.04;98772.09;5013871;28;1002;-73
2022/02/09 18:32:41;;;;;;;;;;;;;;;22.93;19.30;98777.75;5013821;28;1036;-73
2022/02/09 19:04:24;;;;;;;;;;;;;;;22.75;19.82;98792.25;4921091;29;1057;-73
2022/02/09 19:14:50;;;;;;;;;;;;;;;23.05;19.03;98808.34;4883145;29;1980;-73
2022/02/09 19:20:19;;;;;;;;;;;;;;;22.91;19.26;98810.66;4883264;29;1056;-73
2022/02/09 19:31:03;;;;;;;;;;;;;;;22.81;19.63;98816.06;4939672;29;1022;-73
2022/02/09 19:47:23;;;;;;;;;;;;;;;23.02;19.40;98829.06;4929301;29;1251;-73
2022/02/09 19:52:17;;;;;;;;;;;;;;;23.09;19.05;98828.13;4929606;29;1188;-73
2022/02/09 19:55:07;;;;;;;;;;;;;;;22.90;19.56;98823.22;4928776;29;1907;-73
2022/02/09 19:57:36;;;;;;;;;;;;;;;22.88;19.60;98815.94;4928586;29;1200;-73
2022/02/09 20:00:06;;;;;;;;;;;;;;;23.72;18.40;98828.06;4928606;29;1276;-73
2022/02/09 20:02:33;;;;;;;;;;;;;;;23.31;18.62;98823.63;4927310;29;1306;-73
2022/02/09 20:04:59;;;;;;;;;;;;;;;22.93;19.42;98830.88;4928591;29;1242;-73
2022/02/09 20:07:24;;;;;;;;;;;;;;;22.93;19.48;98839.38;4928855;29;1290;-73
2022/02/09 20:09:50;;;;;;;;;;;;;;;23.67;18.47;98837.09;4924906;29;1289;-73
2022/02/09 20:12:16;;;;;;;;;;;;;;;23.73;18.61;98834.56;4903340;29;1243;-73
2022/02/09 20:14:46;;;;;;;;;;;;;;;23.30;18.78;98832.56;4919930;29;1919;-73
2022/02/09 20:17:12;;;;;;;;;;;;;;;22.78;19.78;98821.78;4882044;29;1117;-73
2022/02/09 20:19:39;;;;;;;;;;;;;;;22.74;19.79;98827.56;4882189;29;951;-73
2022/02/09 20:22:04;;;;;;;;;;;;;;;23.11;19.03;98842.69;4882160;29;1174;-73
2022/02/09 20:24:30;;;;;;;;;;;;;;;23.50;18.73;98841.09;4866620;29;1006;-73
2022/02/09 20:27:01;;;;;;;;;;;;;;;23.07;19.23;98848.44;4881953;29;1048;-73
2022/02/09 20:29:29;;;;;;;;;;;;;;;22.91;19.28;98848.34;4882124;29;1009;-73
2022/02/09 20:32:10;;;;;;;;;;;;;;;22.95;19.25;98842.59;4881646;29;1316;-73
2022/02/09 20:34:44;;;;;;;;;;;;;;;23.40;18.95;98852.22;4881984;29;1978;-73
2022/02/09 20:37:10;;;;;;;;;;;;;;;23.48;18.75;98857.78;4882002;29;1020;-73
2022/02/09 20:39:42;;;;;;;;;;;;;;;22.98;19.51;98842.53;4881604;29;986;-73
2022/02/09 20:42:14;;;;;;;;;;;;;;;22.88;19.67;98837.84;4881712;29;1036;-73
2022/02/09 20:44:47;;;;;;;;;;;;;;;23.31;18.94;98837.84;4881642;29;1017;-73
2022/02/09 20:47:14;;;;;;;;;;;;;;;23.58;18.49;98845.41;4886549;29;1122;-73
2022/02/09 20:49:40;;;;;;;;;;;;;;;23.21;19.12;98844.53;4937704;29;1090;-73
2022/02/09 20:52:05;;;;;;;;;;;;;;;22.98;19.26;98841.72;4977220;28;923;-73
2022/02/09 20:54:31;;;;;;;;;;;;;;;22.94;19.33;98847.47;4976661;28;1986;-73
2022/02/09 20:56:57;;;;;;;;;;;;;;;23.16;19.11;98850.72;4976649;28;995;-73
2022/02/09 20:59:22;;;;;;;;;;;;;;;23.35;18.84;98855.59;4976686;28;1010;-73
2022/02/09 21:02:15;;;;;;;;;;;;;;;23.35;18.96;98849.91;4976410;28;1025;-73
2022/02/09 21:04:41;;;;;;;;;;;;;;;22.81;19.42;98855.00;4976419;28;927;-73
2022/02/09 21:07:17;;;;;;;;;;;;;;;22.74;19.64;98853.09;4976069;28;956;-73
2022/02/09 21:09:55;;;;;;;;;;;;;;;23.40;18.92;98843.72;4976419;28;1029;-73
2022/02/09 21:12:34;;;;;;;;;;;;;;;23.67;18.33;98848.44;4976235;28;1073;-73
2022/02/09 21:52:25;;;;;;;;;;;;;;;23.37;18.83;98858.81;4918117;29;1059;-73
2022/02/09 21:54:48;;;;;;;;;;;;;;;23.42;18.85;98848.97;4917599;29;1981;-73
2022/02/09 21:57:27;;;;;;;;;;;;;;;23.45;18.96;98844.44;4899120;29;973;-73
2022/02/09 22:27:43;;;;;;;;;;;;;;;23.16;19.03;98864.91;4861454;29;1003;-73
2022/02/09 22:56:49;;;;;;;;;;;;;;;23.31;18.85;98854.03;4838078;29;1129;-73
2022/02/09 22:59:24;;;;;;;;;;;;;;;22.84;19.37;98852.06;4857967;29;1082;-73
2022/02/09 23:01:54;;;;;;;;;;;;;;;22.91;19.36;98851.19;4842760;29;1033;-73
2022/02/09 23:04:38;;;;;;;;;;;;;;;23.14;19.25;98844.66;4860935;29;990;-73
2022/02/09 23:07:17;;;;;;;;;;;;;;;23.73;18.62;98857.28;4861156;29;1066;-74
2022/02/09 23:14:55;;;;;;;;;;;;;;;22.85;19.62;98862.22;4879649;29;1982;-73
2022/02/09 23:25:41;;;;;;;;;;;;;;;23.11;19.14;98866.22;4946376;29;977;-73
